»·PEaware :: N285 KMFR-KOTH

N285 :: KMFR-KOTH

FLIGHT INFORMATION

Flight Status: Arrived
Operator: Privately registered:
United States
More flights under this callsign
Pilot: Leo F. (613)
Aircraft: BEECH AIRCRAFT SUPER KING AIR COMMUTER
(BE20)
More flights by this aircraft type
Origin: KMFR Rogue Valley Intl-Medford
United States
Destination: KOTH North Bend Mun
United States
More flights between these airports :: More routes between these airports
Route: +GNATS7 KOLER V287 DEROY
File this flight plan on PilotEdge
Remarks:
Altitude:
(Current/Filed)
8,000ft
Speed:
(Current/Filed)
280kts
Departed: 23-May-18 08:15 AM
Arrived: 23-May-18 08:54 AM
Distance/Time
Traveled:
87nm/0:39
Distance/Time
To Go:
Arrived

Flight Plot

Page will automatically refresh every two minutes.

Flight plan parsing failed; only flown route is shown


Map Options




Map Legend


Flown Route
Filed Route
Departure Airport
Arrival Airport
Navaid (VOR, NDB)
Fix

Horizontal Profiles

Position Reports

Time Latitude Longitude Heading Altitude Ground
Speed
23-May-18 07:56 42.369691 -122.873450 204 1339ft 0kts
23-May-18 07:57 42.369691 -122.873450 204 1339ft 0kts
23-May-18 07:58 42.369691 -122.873450 204 1339ft 0kts
23-May-18 07:59 42.369691 -122.873450 204 1339ft 0kts
23-May-18 08:00 42.369691 -122.873450 204 1339ft 0kts
23-May-18 08:01 42.369691 -122.873450 204 1339ft 0kts
23-May-18 08:02 42.369691 -122.873450 204 1339ft 0kts
23-May-18 08:03 42.369691 -122.873450 204 1339ft 0kts
23-May-18 08:04 42.369691 -122.873450 204 1339ft 0kts
23-May-18 08:05 42.369691 -122.873450 204 1339ft 0kts
23-May-18 08:06 42.369691 -122.873450 204 1339ft 0kts
23-May-18 08:07 42.369691 -122.873450 204 1339ft 0kts
23-May-18 08:08 42.369691 -122.873450 204 1339ft 0kts
23-May-18 08:09 42.369691 -122.873450 204 1339ft 0kts
23-May-18 08:10 42.369691 -122.873450 204 1339ft 0kts
23-May-18 08:11 42.369691 -122.873450 204 1339ft 0kts
23-May-18 08:12 42.369691 -122.873450 204 1339ft 0kts
23-May-18 08:13 42.370573 -122.874177 311 1339ft 19kts
23-May-18 08:14 42.370988 -122.875081 125 1339ft 26kts
23-May-18 08:15 42.374006 -122.874398 339 1339ft 43kts
23-May-18 08:16 42.384478 -122.879850 337 1339ft 24kts
23-May-18 08:17 42.385511 -122.879845 64 1339ft 0kts
23-May-18 08:18 42.385512 -122.879841 64 1339ft 0kts
23-May-18 08:19 42.385513 -122.879838 64 1339ft 0kts
23-May-18 08:20 42.385252 -122.878676 158 1339ft 0kts
23-May-18 08:21 42.374133 -122.872836 158 1401ft 135kts
23-May-18 08:22 42.330423 -122.873644 235 3043ft 191kts
23-May-18 08:23 42.353686 -122.924717 357 4869ft 197kts
23-May-18 08:24 42.404729 -122.938583 304 6677ft 197kts
23-May-18 08:25 42.422553 -123.006171 284 8455ft 188kts
23-May-18 08:26 42.439042 -123.073064 287 9976ft 199kts
23-May-18 08:27 42.460016 -123.153314 287 10038ft 243kts
23-May-18 08:28 42.483315 -123.242172 290 10049ft 255kts
23-May-18 08:29 42.545459 -123.277384 2 10067ft 264kts
23-May-18 08:30 42.619208 -123.275914 356 10067ft 266kts
23-May-18 08:31 42.692898 -123.283485 353 10064ft 266kts
23-May-18 08:32 42.766465 -123.295533 338 10058ft 265kts
23-May-18 08:33 42.821329 -123.359783 311 10063ft 262kts
23-May-18 08:34 42.871809 -123.431273 313 10074ft 262kts
23-May-18 08:35 42.923717 -123.501453 313 10075ft 262kts
23-May-18 08:36 42.975687 -123.571249 313 10075ft 262kts
23-May-18 08:37 43.027571 -123.641099 313 10077ft 262kts
23-May-18 08:38 43.081316 -123.713834 313 8725ft 275kts
23-May-18 08:39 43.133638 -123.784462 314 7275ft 267kts
23-May-18 08:40 43.185225 -123.854147 314 6127ft 246kts
23-May-18 08:41 43.229799 -123.914680 314 6087ft 209kts
23-May-18 08:42 43.268899 -123.969214 301 6056ft 196kts
23-May-18 08:43 43.273652 -124.049642 267 4747ft 229kts
23-May-18 08:44 43.271378 -124.137545 268 3725ft 220kts
23-May-18 08:45 43.270060 -124.210212 270 3691ft 154kts
23-May-18 08:46 43.270383 -124.268091 273 2969ft 164kts
23-May-18 08:47 43.271661 -124.326634 273 2597ft 139kts
23-May-18 08:48 43.276446 -124.377851 295 2504ft 134kts
23-May-18 08:49 43.302847 -124.411679 335 2317ft 142kts
23-May-18 08:50 43.342052 -124.412099 21 2005ft 139kts
23-May-18 08:51 43.368693 -124.375494 62 1914ft 143kts
23-May-18 08:52 43.388683 -124.323951 59 1184ft 157kts
23-May-18 08:53 43.406976 -124.279596 59 442ft 108kts
23-May-18 08:54 43.419543 -124.249030 60 21ft 30kts
23-May-18 08:55 43.416976 -124.247130 203 21ft 30kts
23-May-18 08:56 43.415743 -124.246923 138 21ft 0kts
23-May-18 08:57 43.415740 -124.246920 138 21ft 0kts
23-May-18 08:58 43.415738 -124.246918 138 21ft 0kts

Navigation Log

Ident Type
Flight plan parsing failed, navigation log unavailable